Burwash Airport
CYDB : now visible

Aeroporto :











RITROVATECI SU...

 
LOGIN :

Iscrizione | Disclaimer

   EN    FR    IT 

 









Sommario :    VFR   VFR Marginale   IFR   IFR Intensivo   IFR Molto Intensivo
Visibilità : 
Base nubi : 
>= 8 km
>= 3000ft
5 / 8 km
1000 / 3000 ft
1500m / 5 km
500 / 1000 ft
800 / 1500m
200 / 500 ft
< 800m
< 200 ft
Simboli :   Temporali  Nebbia  Neve Forte  Precipitazioni Forti  Vento > 20 kt






- Altitudine del aeroporto : 2647 ft
- Codice IATA : YDB


CYDB - Burwash

ULTIMO METAR :
  • 271600Z 08003KT 30SM FEW035 SCT050 BKN060 BKN080 05/01 A3023 RMK CF1SC2SC2AC2 SLP267

METARs OBSOLETI :
  • 271500Z 10004KT 050V110 30SM FEW030 FEW050 BKN060 BKN080 04/01 A3022 RMK CF1SC3SC2AC1 CF TR SLP264
  • 271400Z VRB02KT 30SM FEW050 SCT060 SCT080 03/02 A3021 RMK SC1SC2AC1 /2.2 MM AFT 22UTC/ SLP260

TAF TAF CYDB
Valido dal 27 a 12 ore il 28 a 00 ore UTC


271138Z 2712/2724 VRB03KT P6SM OVC060
TEMPO 2712/2717 P6SM -SHRA OVC050
FM271700 VRB03KT P6SM BKN080
TEMPO 2717/2724 P6SM -SHRA OVC060
BECMG 2717/2719 32007KT RMK FCST BASED ON AUTO OBS. NXT FCST BY 271800Z
FIR CZEG / America del Nord



MetMap, La meteo Aeronautica in un colpo d'occhio ! - Copyright ORBIFLY Dicembre 2007 - Disclaimer

ORBIFLY MET'MAP TEAM :

Programmazione e sviluppo : Alexandra Zaïnal
Concezione : Baudouin d'Aumeries
Aiuto per la programmazione : Marc-Olivier Méhu
Supporto tecnico e logistico : Manuel Goepfert
Aiuto per la traduzione : Arnaldo La Scala

Contatto : metmap@orbifly.com




FONTI E CREDITI :

   NOAA       Earth
Advisory